Time;durP1;ratioP1;P1;durP2;ratioP2;P2;SDS_P1;SDS_P2;PMS_P1;PMS_P2;Temp;Humidity;BMP_temperature;BMP_pressure;BME280_temperature;BME280_humidity;BME280_pressure;Samples;Min_cycle;Max_cycle;Signal;HPM_P1;HPM_P2
2022/12/06 05:04:50;;;;;;;5.40;5.00;;;4.60;99.90;;;;;;5453135;23;20392;-61
2022/12/06 05:07:15;;;;;;;5.60;5.10;;;4.60;99.90;;;;;;4917286;29;20217;-61
2022/12/06 05:09:41;;;;;;;8.97;6.90;;;4.50;99.90;;;;;;4916248;29;20170;-60
2022/12/06 05:12:07;;;;;;;7.70;6.20;;;4.50;99.90;;;;;;4899553;29;20214;-62
2022/12/06 05:14:32;;;;;;;8.37;7.57;;;4.60;99.90;;;;;;4898063;29;20203;-60
2022/12/06 05:16:58;;;;;;;7.17;5.83;;;4.60;99.90;;;;;;4899691;29;20179;-60
2022/12/06 05:19:24;;;;;;;8.10;6.27;;;4.50;99.90;;;;;;4899241;29;20254;-63
2022/12/06 05:21:49;;;;;;;6.00;5.10;;;4.50;99.90;;;;;;4899010;29;20544;-61
2022/12/06 05:24:15;;;;;;;7.80;7.00;;;4.50;99.90;;;;;;4898948;29;20509;-62
2022/12/06 05:26:40;;;;;;;6.57;5.87;;;4.50;99.90;;;;;;4899473;29;20653;-62
2022/12/06 05:29:06;;;;;;;8.40;6.57;;;4.50;99.90;;;;;;4899527;29;20639;-61
2022/12/06 05:31:31;;;;;;;6.80;6.10;;;4.50;99.90;;;;;;4899383;29;20182;-62
2022/12/06 05:33:57;;;;;;;9.47;6.83;;;4.50;99.90;;;;;;4898393;29;20279;-61
2022/12/06 05:36:25;;;;;;;6.33;5.70;;;4.50;99.90;;;;;;4898832;29;20206;-61
2022/12/06 05:38:51;;;;;;;7.75;5.68;;;4.50;99.90;;;;;;4899248;29;20175;-62
2022/12/06 05:41:19;;;;;;;10.48;6.63;;;4.50;99.90;;;;;;4899260;29;20178;-62
2022/12/06 05:43:44;;;;;;;5.80;5.25;;;4.50;99.90;;;;;;4898873;29;20178;-59
2022/12/06 05:46:10;;;;;;;6.10;5.53;;;4.50;99.90;;;;;;4898954;29;20517;-63
2022/12/06 05:48:36;;;;;;;7.50;5.23;;;4.60;99.90;;;;;;4899107;29;20184;-62
2022/12/06 05:51:02;;;;;;;6.47;5.87;;;4.60;99.90;;;;;;4899155;29;20187;-61
2022/12/06 05:53:27;;;;;;;8.57;6.47;;;4.70;99.90;;;;;;4898432;29;20592;-62
2022/12/06 05:55:53;;;;;;;8.20;5.73;;;4.80;99.90;;;;;;4898839;29;20185;-62
2022/12/06 05:58:19;;;;;;;6.40;5.53;;;4.80;99.90;;;;;;4904475;29;20608;-62
2022/12/06 06:00:46;;;;;;;7.50;6.70;;;4.90;99.90;;;;;;4912942;29;20184;-62
2022/12/06 06:03:12;;;;;;;7.70;6.78;;;4.90;99.90;;;;;;4916584;29;20189;-61
2022/12/06 06:05:48;;;;;;;7.07;5.67;;;4.90;99.90;;;;;;4917119;29;20296;-62
2022/12/06 06:08:17;;;;;;;7.68;6.88;;;4.90;99.90;;;;;;4917722;29;20586;-61
2022/12/06 06:10:43;;;;;;;6.25;5.65;;;4.90;99.90;;;;;;4917200;29;20191;-62
2022/12/06 06:13:09;;;;;;;7.53;6.68;;;4.90;99.90;;;;;;4917158;29;20229;-63
2022/12/06 06:15:35;;;;;;;8.73;6.57;;;4.90;99.90;;;;;;4917211;29;20197;-61
2022/12/06 06:18:01;;;;;;;8.83;6.60;;;4.90;99.90;;;;;;4917401;29;20481;-62
2022/12/06 06:20:26;;;;;;;7.83;6.20;;;4.80;99.90;;;;;;4915552;29;20791;-61
2022/12/06 06:22:53;;;;;;;8.73;6.50;;;4.80;99.90;;;;;;4916824;29;20550;-62
2022/12/06 06:25:18;;;;;;;12.80;6.47;;;4.80;99.90;;;;;;4916316;29;20643;-62
2022/12/06 06:27:44;;;;;;;8.23;6.40;;;4.80;99.90;;;;;;4917845;29;20312;-60
2022/12/06 06:30:11;;;;;;;7.67;6.90;;;4.80;99.90;;;;;;4917349;29;20198;-62
2022/12/06 06:32:37;;;;;;;9.75;6.88;;;4.80;99.90;;;;;;4917023;29;20199;-61
2022/12/06 06:35:03;;;;;;;10.03;6.40;;;4.80;99.90;;;;;;4916565;29;20560;-62
2022/12/06 06:37:29;;;;;;;8.90;7.45;;;4.90;99.90;;;;;;4916481;29;20261;-62
2022/12/06 06:39:55;;;;;;;7.07;5.90;;;4.80;99.90;;;;;;4916976;29;20352;-62
2022/12/06 06:42:20;;;;;;;7.07;6.37;;;4.80;99.90;;;;;;4917772;29;20178;-63
2022/12/06 06:44:46;;;;;;;8.60;7.40;;;4.80;99.90;;;;;;4916264;29;20443;-64
2022/12/06 06:47:12;;;;;;;8.73;7.37;;;4.80;99.90;;;;;;4916723;29;20249;-62
2022/12/06 06:49:37;;;;;;;8.70;5.80;;;4.80;99.90;;;;;;4916433;29;20196;-62
2022/12/06 06:52:03;;;;;;;7.00;6.30;;;4.90;99.90;;;;;;4916842;29;20278;-61
2022/12/06 06:54:29;;;;;;;9.20;6.85;;;4.90;99.90;;;;;;4916126;29;20287;-64
2022/12/06 06:56:55;;;;;;;10.40;6.73;;;5.00;99.90;;;;;;4917084;29;20277;-62
2022/12/06 06:59:22;;;;;;;7.75;6.75;;;4.90;99.90;;;;;;4916177;29;20574;-63
2022/12/06 07:01:48;;;;;;;9.52;8.13;;;4.90;99.90;;;;;;4916485;29;20225;-62
2022/12/06 07:04:14;;;;;;;11.00;9.07;;;4.90;99.90;;;;;;4916401;29;20196;-64
2022/12/06 07:06:39;;;;;;;7.83;6.57;;;5.00;99.90;;;;;;4915858;29;20182;-62
2022/12/06 07:09:05;;;;;;;10.90;8.50;;;4.90;99.90;;;;;;4916729;29;20636;-60
2022/12/06 07:11:31;;;;;;;10.30;7.50;;;5.00;99.90;;;;;;4916635;29;20422;-61
2022/12/06 07:13:56;;;;;;;8.50;7.70;;;5.00;99.90;;;;;;4914773;29;20550;-61
2022/12/06 07:16:22;;;;;;;8.60;6.97;;;5.00;99.90;;;;;;4916670;29;20265;-63
2022/12/06 07:18:48;;;;;;;9.37;7.83;;;4.90;99.90;;;;;;4918006;29;20176;-62
2022/12/06 07:21:15;;;;;;;7.70;6.83;;;5.00;99.90;;;;;;4919187;29;20489;-63
2022/12/06 07:23:41;;;;;;;9.88;6.82;;;5.00;99.90;;;;;;4920103;29;20223;-63
2022/12/06 07:26:13;;;;;;;11.35;7.72;;;5.00;99.90;;;;;;4920580;29;20640;-63
2022/12/06 07:28:41;;;;;;;9.35;6.45;;;5.00;99.90;;;;;;4920539;29;20179;-63
2022/12/06 07:31:09;;;;;;;7.38;6.63;;;5.00;99.90;;;;;;4920246;29;20188;-61
2022/12/06 07:33:34;;;;;;;8.05;6.55;;;5.00;99.90;;;;;;4919809;29;20225;-63
2022/12/06 07:36:00;;;;;;;8.10;6.27;;;5.00;99.90;;;;;;4920248;29;20646;-62
2022/12/06 07:38:25;;;;;;;7.20;6.60;;;5.10;99.90;;;;;;4920448;29;20207;-63
2022/12/06 07:40:51;;;;;;;8.43;6.90;;;5.00;99.90;;;;;;4920309;29;20235;-63
2022/12/06 07:46:01;;;;;;;7.97;6.22;;;5.00;99.90;;;;;;4920191;29;20549;-62
2022/12/06 07:48:26;;;;;;;8.43;5.90;;;5.00;99.90;;;;;;4920170;29;20180;-62
2022/12/06 07:50:52;;;;;;;6.67;6.00;;;5.00;99.90;;;;;;4920200;29;20188;-63
2022/12/06 07:53:18;;;;;;;5.60;5.10;;;5.00;99.90;;;;;;4919566;29;20300;-63
2022/12/06 07:55:43;;;;;;;6.43;5.80;;;5.10;99.90;;;;;;4919796;29;20199;-61
2022/12/06 07:58:09;;;;;;;7.40;6.50;;;5.10;99.90;;;;;;4919915;29;20268;-61
2022/12/06 08:00:36;;;;;;;10.10;7.80;;;5.10;99.90;;;;;;4919970;29;20190;-62
2022/12/06 08:03:02;;;;;;;7.57;6.00;;;5.10;99.90;;;;;;4919569;29;20172;-62
2022/12/06 08:05:28;;;;;;;8.35;6.22;;;5.10;99.90;;;;;;4919586;29;20684;-62
2022/12/06 08:07:53;;;;;;;9.98;7.22;;;5.20;99.90;;;;;;4919621;29;20267;-63
2022/12/06 08:10:19;;;;;;;7.00;5.70;;;5.20;99.90;;;;;;4920089;29;20264;-61
2022/12/06 08:12:45;;;;;;;13.50;6.93;;;5.20;99.90;;;;;;4919113;29;20194;-62
2022/12/06 08:15:13;;;;;;;10.70;6.80;;;5.20;99.90;;;;;;4919661;29;20247;-62
2022/12/06 08:17:40;;;;;;;18.27;7.55;;;5.20;99.90;;;;;;4919341;29;20169;-63
2022/12/06 08:20:07;;;;;;;9.15;7.28;;;5.20;99.90;;;;;;4919603;29;20178;-63
2022/12/06 08:22:33;;;;;;;8.20;5.80;;;5.20;99.90;;;;;;4919566;29;20184;-61
2022/12/06 08:24:59;;;;;;;9.00;6.70;;;5.20;99.90;;;;;;4918706;29;20197;-62
2022/12/06 08:27:24;;;;;;;11.83;7.53;;;5.20;99.90;;;;;;4919193;29;20189;-63
2022/12/06 08:29:50;;;;;;;10.10;6.67;;;5.30;99.90;;;;;;4919341;29;20503;-63
2022/12/06 08:32:16;;;;;;;7.70;6.90;;;5.30;99.90;;;;;;4917923;29;20727;-64
2022/12/06 08:34:42;;;;;;;8.33;7.53;;;5.40;99.90;;;;;;4918932;29;20213;-62
2022/12/06 08:37:08;;;;;;;11.15;6.75;;;5.40;99.90;;;;;;4919196;29;20180;-62
2022/12/06 08:39:34;;;;;;;8.50;6.10;;;5.50;99.90;;;;;;4919456;29;20175;-63
2022/12/06 08:42:02;;;;;;;10.70;6.30;;;5.50;99.90;;;;;;4919269;29;20670;-62
2022/12/06 08:44:30;;;;;;;7.38;6.68;;;5.50;99.90;;;;;;4918709;29;20540;-63
2022/12/06 08:46:57;;;;;;;5.43;4.88;;;5.50;99.90;;;;;;4918982;29;20187;-63
2022/12/06 08:49:24;;;;;;;8.25;6.68;;;5.40;99.90;;;;;;4919192;29;20178;-64
2022/12/06 08:51:51;;;;;;;8.40;5.80;;;5.40;99.90;;;;;;4919017;29;20188;-64
2022/12/06 08:54:18;;;;;;;7.30;6.60;;;5.50;99.90;;;;;;4918529;29;20200;-61
2022/12/06 08:56:44;;;;;;;9.20;7.30;;;5.50;99.90;;;;;;4919067;29;20593;-64
2022/12/06 08:59:10;;;;;;;7.23;6.17;;;5.60;99.90;;;;;;4918948;29;20180;-62
2022/12/06 09:01:36;;;;;;;9.27;8.38;;;5.60;99.90;;;;;;4918684;29;20416;-63
2022/12/06 09:04:02;;;;;;;9.93;7.30;;;5.60;99.90;;;;;;4918369;29;20197;-62
2022/12/06 09:06:29;;;;;;;7.38;6.05;;;5.60;99.90;;;;;;4918562;29;20196;-63
2022/12/06 09:08:55;;;;;;;10.77;6.85;;;5.60;99.90;;;;;;4918407;29;20263;-62
2022/12/06 09:11:20;;;;;;;9.75;5.40;;;5.60;99.90;;;;;;4918678;29;20642;-63
2022/12/06 09:13:46;;;;;;;11.33;6.30;;;5.70;99.90;;;;;;4918010;29;20228;-62
2022/12/06 09:16:19;;;;;;;8.13;5.73;;;5.70;99.90;;;;;;4918382;29;20452;-63
2022/12/06 09:18:46;;;;;;;6.28;5.40;;;5.80;99.90;;;;;;4918569;29;20201;-63
2022/12/06 09:21:18;;;;;;;6.18;5.07;;;5.80;99.90;;;;;;4918627;29;20571;-62
2022/12/06 09:23:43;;;;;;;5.70;5.20;;;5.80;99.90;;;;;;4918125;29;20527;-64
2022/12/06 09:26:09;;;;;;;9.20;6.73;;;5.80;99.90;;;;;;4918575;29;20181;-62
2022/12/06 09:28:38;;;;;;;8.00;4.73;;;5.80;99.90;;;;;;4918279;29;20199;-64
2022/12/06 09:31:05;;;;;;;6.25;4.90;;;5.80;99.90;;;;;;4918510;29;20418;-62
2022/12/06 09:33:31;;;;;;;6.65;5.18;;;5.80;99.90;;;;;;4919953;29;20219;-63
2022/12/06 09:36:01;;;;;;;5.90;5.07;;;5.80;99.90;;;;;;4920424;29;20180;-65
2022/12/06 09:38:29;;;;;;;6.65;5.95;;;5.80;99.90;;;;;;4920025;29;20413;-63
2022/12/06 09:41:37;;;;;;;6.38;5.57;;;5.80;99.90;;;;;;4918778;29;20651;-63
2022/12/06 09:44:28;;;;;;;8.10;6.68;;;5.80;99.90;;;;;;4919383;29;20204;-62
2022/12/06 09:47:33;;;;;;;9.35;6.55;;;5.90;99.90;;;;;;4920090;29;20188;-63
2022/12/06 09:50:17;;;;;;;6.07;4.97;;;5.90;99.90;;;;;;4918169;29;20255;-64
2022/12/06 09:52:54;;;;;;;6.05;5.40;;;6.00;99.90;;;;;;4917228;29;20741;-62
2022/12/06 09:55:23;;;;;;;7.65;5.55;;;6.00;99.90;;;;;;4917776;29;20709;-64
2022/12/06 09:57:59;;;;;;;7.65;6.10;;;6.00;99.90;;;;;;4917932;29;20208;-62
2022/12/06 10:00:29;;;;;;;7.63;5.00;;;6.00;99.90;;;;;;4917850;29;20178;-65
2022/12/06 10:03:13;;;;;;;11.38;7.13;;;6.10;99.90;;;;;;4917389;29;20302;-63
2022/12/06 10:06:01;;;;;;;7.88;5.00;;;6.00;99.90;;;;;;4917675;29;20622;-64
2022/12/06 10:08:48;;;;;;;7.88;6.13;;;6.00;99.90;;;;;;4917765;29;20592;-63
2022/12/06 10:11:33;;;;;;;6.70;5.72;;;6.00;99.90;;;;;;4917947;29;20185;-63
2022/12/06 10:14:17;;;;;;;5.97;5.43;;;6.00;99.90;;;;;;4915886;29;20235;-63
2022/12/06 10:17:03;;;;;;;7.90;6.35;;;6.00;99.90;;;;;;4917449;29;20173;-64
2022/12/06 10:19:31;;;;;;;8.88;6.55;;;6.00;99.90;;;;;;4917619;29;20177;-64
2022/12/06 10:22:17;;;;;;;7.13;5.63;;;6.10;99.90;;;;;;4917092;29;20228;-64
2022/12/06 10:25:02;;;;;;;6.05;5.45;;;6.10;99.90;;;;;;4916877;29;20204;-63
2022/12/06 10:27:36;;;;;;;8.90;6.28;;;6.20;99.90;;;;;;4917498;29;20172;-63
2022/12/06 10:30:09;;;;;;;8.02;6.18;;;6.20;99.90;;;;;;4917347;29;20172;-63
2022/12/06 10:33:02;;;;;;;6.57;5.20;;;6.20;99.90;;;;;;4917072;29;20206;-61
2022/12/06 10:35:51;;;;;;;7.85;5.55;;;6.20;99.90;;;;;;4917348;29;20284;-64
2022/12/06 10:38:27;;;;;;;7.65;5.97;;;6.20;99.90;;;;;;4917105;29;20641;-65
2022/12/06 10:41:17;;;;;;;7.40;5.70;;;6.20;99.90;;;;;;4917058;29;20591;-64
2022/12/06 10:44:00;;;;;;;6.47;5.68;;;6.20;99.90;;;;;;4916678;29;20189;-62
2022/12/06 10:49:31;;;;;;;5.72;3.60;;;6.10;99.90;;;;;;4917010;29;20606;-62
2022/12/06 10:52:24;;;;;;;7.45;5.28;;;6.10;99.90;;;;;;4917084;29;20188;-63
2022/12/06 10:55:08;;;;;;;7.15;4.72;;;6.00;99.90;;;;;;4913241;29;20625;-62
2022/12/06 10:57:42;;;;;;;7.00;4.63;;;6.00;99.90;;;;;;4916960;29;20176;-64
2022/12/06 11:00:25;;;;;;;9.02;5.75;;;5.90;99.90;;;;;;4916774;29;20176;-64
2022/12/06 11:02:59;;;;;;;5.97;5.38;;;6.00;99.90;;;;;;4916784;29;20189;-61
2022/12/06 11:05:42;;;;;;;10.63;5.68;;;5.90;99.90;;;;;;4916879;29;20638;-63
2022/12/06 11:08:34;;;;;;;8.45;5.72;;;5.90;99.90;;;;;;4917381;29;20236;-62
2022/12/06 11:11:03;;;;;;;7.82;5.55;;;5.90;99.90;;;;;;4916993;29;20268;-61
2022/12/06 11:13:42;;;;;;;6.45;4.55;;;5.90;99.90;;;;;;4916314;29;20307;-61
2022/12/06 11:16:44;;;;;;;8.13;5.15;;;5.90;99.90;;;;;;4916918;29;20511;-63
2022/12/06 11:19:33;;;;;;;7.00;5.10;;;5.90;99.90;;;;;;4906038;29;20190;-63
2022/12/06 11:22:22;;;;;;;6.15;4.18;;;5.90;99.90;;;;;;4906418;29;20195;-63
2022/12/06 11:25:08;;;;;;;6.38;4.18;;;5.80;99.90;;;;;;4916312;29;20194;-62
2022/12/06 11:27:40;;;;;;;6.18;4.47;;;5.80;99.90;;;;;;4916143;29;20205;-63
2022/12/06 11:30:15;;;;;;;3.05;2.70;;;5.80;99.90;;;;;;4916767;29;20182;-63
2022/12/06 11:32:41;;;;;;;4.30;3.50;;;5.80;99.90;;;;;;4916520;29;20685;-64
2022/12/06 11:35:13;;;;;;;4.40;3.80;;;5.70;99.90;;;;;;4916445;29;20731;-65
2022/12/06 11:37:39;;;;;;;5.13;3.78;;;5.70;99.90;;;;;;4916546;29;20261;-63
2022/12/06 11:40:21;;;;;;;5.40;4.10;;;5.70;99.90;;;;;;4916503;29;20728;-62
2022/12/06 11:42:46;;;;;;;6.13;4.18;;;5.70;99.90;;;;;;4916296;29;20823;-61
2022/12/06 11:45:23;;;;;;;5.53;4.20;;;5.70;99.90;;;;;;4916656;29;20291;-62
2022/12/06 11:47:55;;;;;;;3.50;3.20;;;5.70;99.90;;;;;;4916687;29;20175;-63
2022/12/06 11:50:20;;;;;;;5.20;3.50;;;5.70;99.90;;;;;;4916534;29;20161;-62
2022/12/06 11:53:01;;;;;;;3.93;3.20;;;5.70;99.90;;;;;;4916191;29;20213;-62
2022/12/06 11:55:33;;;;;;;5.82;3.53;;;5.70;99.90;;;;;;4915588;29;20438;-63
2022/12/06 11:58:15;;;;;;;5.78;4.68;;;5.60;99.90;;;;;;4911200;29;20238;-63
2022/12/06 12:01:01;;;;;;;7.97;3.75;;;5.60;99.90;;;;;;4916138;29;20248;-63
2022/12/06 12:03:38;;;;;;;4.28;3.88;;;5.60;99.90;;;;;;4915610;29;20189;-63
2022/12/06 12:06:23;;;;;;;4.05;3.65;;;5.50;99.90;;;;;;4919391;29;20193;-62
2022/12/06 12:09:05;;;;;;;6.55;3.10;;;5.40;99.90;;;;;;4919879;29;20177;-62
2022/12/06 12:11:38;;;;;;;5.70;4.30;;;5.40;99.90;;;;;;4919499;29;20190;-63
2022/12/06 12:14:14;;;;;;;4.13;3.80;;;5.40;99.90;;;;;;4919142;29;20210;-63
2022/12/06 12:16:46;;;;;;;2.67;2.45;;;5.40;99.90;;;;;;4919596;29;20256;-62
2022/12/06 12:19:30;;;;;;;3.47;3.05;;;5.30;99.90;;;;;;4919388;29;20180;-62
2022/12/06 12:21:58;;;;;;;4.80;3.90;;;5.30;99.90;;;;;;4919696;29;20170;-62
2022/12/06 12:24:48;;;;;;;3.75;3.30;;;5.30;99.90;;;;;;4918667;29;20196;-63
2022/12/06 12:27:32;;;;;;;4.10;3.60;;;5.30;99.90;;;;;;4919453;29;20210;-61
2022/12/06 12:30:16;;;;;;;4.03;3.42;;;5.20;99.90;;;;;;4919374;29;20171;-64
2022/12/06 12:32:43;;;;;;;3.17;2.88;;;5.20;99.90;;;;;;4919149;29;20257;-62
2022/12/06 12:35:21;;;;;;;4.30;3.25;;;5.20;99.90;;;;;;4919165;29;20208;-62
2022/12/06 12:38:10;;;;;;;4.25;3.83;;;5.20;99.90;;;;;;4919303;29;20170;-62
2022/12/06 12:40:42;;;;;;;5.57;4.30;;;5.10;99.90;;;;;;4917970;29;20182;-62
2022/12/06 12:43:10;;;;;;;5.78;4.65;;;5.10;99.90;;;;;;4907554;29;20207;-60
2022/12/06 12:45:39;;;;;;;3.88;3.40;;;5.10;99.90;;;;;;4903684;29;20217;-62
2022/12/06 12:48:23;;;;;;;7.45;3.97;;;5.10;99.90;;;;;;4919322;29;20186;-60
2022/12/06 12:50:56;;;;;;;3.83;3.53;;;5.00;99.90;;;;;;4917750;29;20188;-63
2022/12/06 12:53:31;;;;;;;3.38;3.08;;;5.00;99.90;;;;;;4918296;29;20295;-63
2022/12/06 12:56:18;;;;;;;2.75;2.55;;;5.00;99.90;;;;;;4918933;29;20564;-63
2022/12/06 12:58:46;;;;;;;3.03;2.83;;;5.00;99.90;;;;;;4918470;29;20176;-64
2022/12/06 13:01:24;;;;;;;2.70;2.17;;;5.00;99.90;;;;;;4919003;29;20507;-61
2022/12/06 13:04:03;;;;;;;4.13;3.22;;;5.00;99.90;;;;;;4918583;29;20287;-61
2022/12/06 13:06:37;;;;;;;3.75;3.40;;;5.00;99.90;;;;;;4918704;29;20261;-60
2022/12/06 13:09:05;;;;;;;2.75;2.53;;;5.00;99.90;;;;;;4918485;29;20188;-60
2022/12/06 13:11:41;;;;;;;6.32;3.20;;;5.10;99.90;;;;;;4918615;29;20228;-61
2022/12/06 13:14:17;;;;;;;3.67;2.38;;;5.10;99.90;;;;;;4918173;29;20203;-61
2022/12/06 13:16:43;;;;;;;2.65;2.45;;;5.20;99.90;;;;;;4917928;29;20184;-63
2022/12/06 13:19:15;;;;;;;4.28;2.13;;;5.20;99.90;;;;;;4918668;29;20238;-60
2022/12/06 13:21:44;;;;;;;2.20;2.05;;;5.30;99.90;;;;;;4918538;29;20178;-61
2022/12/06 13:24:09;;;;;;;2.92;1.92;;;5.30;99.90;;;;;;4917565;29;20661;-62
2022/12/06 13:26:55;;;;;;;4.07;3.00;;;5.30;99.90;;;;;;4917012;29;20185;-62
2022/12/06 13:29:38;;;;;;;3.40;2.90;;;5.30;99.90;;;;;;4918303;29;20216;-62
2022/12/06 13:32:45;;;;;;;3.65;3.25;;;5.30;99.90;;;;;;4918151;29;20212;-63
2022/12/06 13:35:30;;;;;;;2.95;2.75;;;5.30;99.90;;;;;;4917846;29;20206;-61
2022/12/06 13:38:01;;;;;;;2.20;2.10;;;5.30;99.90;;;;;;4916520;29;20185;-63
2022/12/06 13:40:37;;;;;;;3.38;3.08;;;5.30;99.90;;;;;;4918164;29;20208;-62
2022/12/06 13:43:25;;;;;;;2.80;2.25;;;5.30;99.90;;;;;;4917746;29;20182;-61
2022/12/06 13:46:25;;;;;;;5.43;4.25;;;5.40;99.90;;;;;;4918070;29;20190;-62
2022/12/06 13:49:00;;;;;;;2.85;2.65;;;5.40;99.90;;;;;;4918018;29;20184;-62
2022/12/06 13:51:36;;;;;;;2.95;2.45;;;5.40;99.90;;;;;;4917840;29;20187;-62
2022/12/06 13:54:05;;;;;;;2.95;2.75;;;5.40;99.90;;;;;;4917385;29;20215;-63
2022/12/06 13:56:33;;;;;;;2.60;2.40;;;5.40;99.90;;;;;;4917984;29;20166;-62
2022/12/06 13:59:11;;;;;;;2.97;2.67;;;5.40;99.90;;;;;;4918008;29;20188;-62
2022/12/06 14:01:43;;;;;;;3.47;2.60;;;5.40;99.90;;;;;;4917666;29;20231;-63
2022/12/06 14:04:27;;;;;;;3.50;2.90;;;5.40;99.90;;;;;;4917183;29;20203;-62
2022/12/06 14:07:06;;;;;;;4.32;2.55;;;5.40;99.90;;;;;;4917207;29;20205;-63
2022/12/06 14:09:48;;;;;;;4.50;3.00;;;5.40;99.90;;;;;;4917768;29;20201;-61
2022/12/06 14:12:27;;;;;;;3.30;3.00;;;5.40;99.90;;;;;;4916239;29;20197;-61
2022/12/06 14:15:01;;;;;;;4.50;3.53;;;5.30;99.90;;;;;;4917280;29;20205;-60
2022/12/06 14:17:45;;;;;;;4.47;4.05;;;5.30;99.90;;;;;;4917715;29;20184;-62
2022/12/06 14:20:26;;;;;;;2.95;2.70;;;5.30;99.90;;;;;;4916551;29;20189;-61
2022/12/06 14:22:52;;;;;;;4.55;3.28;;;5.40;99.90;;;;;;4916548;29;20183;-63
2022/12/06 14:25:21;;;;;;;3.97;3.65;;;5.30;99.90;;;;;;4911714;29;20210;-62
2022/12/06 14:27:50;;;;;;;3.63;3.20;;;5.40;99.90;;;;;;4916979;29;20553;-61
2022/12/06 14:30:24;;;;;;;3.10;2.60;;;5.30;99.90;;;;;;4917542;29;20175;-62
2022/12/06 14:32:55;;;;;;;3.35;3.15;;;5.30;99.90;;;;;;4916601;29;20212;-62
2022/12/06 14:35:24;;;;;;;1.95;1.85;;;5.30;99.90;;;;;;4917222;29;20686;-62
2022/12/06 14:37:52;;;;;;;5.55;3.75;;;5.30;99.90;;;;;;4916418;29;20214;-64
2022/12/06 14:40:24;;;;;;;4.28;3.92;;;5.20;99.90;;;;;;4916845;29;20268;-63
2022/12/06 14:43:01;;;;;;;3.50;3.10;;;5.30;99.90;;;;;;4916945;29;20315;-62
2022/12/06 14:45:32;;;;;;;3.25;2.75;;;5.30;99.90;;;;;;4917187;29;20195;-61
2022/12/06 14:48:00;;;;;;;2.75;2.55;;;5.20;99.90;;;;;;4917135;29;20637;-62
2022/12/06 14:50:30;;;;;;;4.03;3.72;;;5.20;99.90;;;;;;4916627;29;20184;-62
2022/12/06 14:53:10;;;;;;;3.33;3.03;;;5.20;99.90;;;;;;4915096;29;20761;-61
2022/12/06 14:55:57;;;;;;;3.25;2.47;;;5.20;99.90;;;;;;4916881;29;20565;-62
2022/12/06 14:58:27;;;;;;;2.90;2.70;;;5.20;99.90;;;;;;4916933;29;20174;-61
2022/12/06 15:01:24;;;;;;;3.95;3.45;;;5.20;99.90;;;;;;4917134;29;20267;-60
2022/12/06 15:04:02;;;;;;;4.85;3.85;;;5.20;99.90;;;;;;4914850;29;20208;-62
2022/12/06 15:06:30;;;;;;;3.95;3.65;;;5.20;99.90;;;;;;4916585;29;20197;-62
2022/12/06 15:08:56;;;;;;;2.97;2.72;;;5.10;99.90;;;;;;4916257;29;20184;-63
2022/12/06 15:14:14;;;;;;;4.25;3.03;;;5.20;99.90;;;;;;4916331;29;20213;-62
2022/12/06 15:16:42;;;;;;;3.95;3.25;;;5.10;99.90;;;;;;4917022;29;20172;-61
2022/12/06 15:19:13;;;;;;;5.00;3.67;;;5.10;99.90;;;;;;4916787;29;20591;-62
2022/12/06 15:21:39;;;;;;;3.25;2.60;;;5.10;99.90;;;;;;4916068;29;20257;-61
2022/12/06 15:24:18;;;;;;;2.83;2.60;;;5.10;99.90;;;;;;4916316;29;20285;-61
2022/12/06 15:26:44;;;;;;;4.78;4.32;;;5.10;99.90;;;;;;4916786;29;20186;-61
2022/12/06 15:29:09;;;;;;;3.33;3.03;;;5.10;99.90;;;;;;4916297;29;20256;-63
2022/12/06 15:31:35;;;;;;;4.90;2.73;;;5.10;99.90;;;;;;4915086;29;20183;-61
2022/12/06 15:34:01;;;;;;;6.00;3.75;;;5.10;99.90;;;;;;4916176;29;20219;-62
2022/12/06 15:36:31;;;;;;;4.93;3.93;;;5.10;99.90;;;;;;4916764;29;20232;-63
2022/12/06 15:38:57;;;;;;;3.45;3.15;;;5.10;99.90;;;;;;4916990;29;20180;-62
2022/12/06 15:41:26;;;;;;;3.80;3.43;;;5.10;99.90;;;;;;4919985;29;20583;-63
2022/12/06 15:43:53;;;;;;;3.47;3.28;;;5.10;99.90;;;;;;4919885;29;20555;-61
2022/12/06 15:46:25;;;;;;;3.85;3.53;;;5.10;99.90;;;;;;4919079;29;20542;-63
2022/12/06 15:48:52;;;;;;;5.10;3.33;;;5.10;99.90;;;;;;4919118;29;20589;-61
2022/12/06 15:51:20;;;;;;;3.75;3.42;;;5.10;99.90;;;;;;4920138;29;20664;-64
2022/12/06 15:53:47;;;;;;;5.32;4.13;;;5.10;99.90;;;;;;4918857;29;20266;-65
2022/12/06 15:56:15;;;;;;;4.40;4.00;;;5.10;99.90;;;;;;4919433;29;20597;-63
2022/12/06 15:58:45;;;;;;;3.85;3.28;;;5.10;99.90;;;;;;4919797;29;20212;-64
2022/12/06 16:01:31;;;;;;;6.22;4.60;;;5.10;99.90;;;;;;4920082;29;20216;-68
2022/12/06 16:03:57;;;;;;;4.40;4.00;;;5.10;99.90;;;;;;4915667;29;20196;-66
2022/12/06 16:06:24;;;;;;;4.40;4.00;;;5.10;99.90;;;;;;4919107;29;20606;-65
2022/12/06 16:08:50;;;;;;;7.03;4.00;;;5.10;99.90;;;;;;4911794;29;20426;-64
2022/12/06 16:11:18;;;;;;;4.70;4.00;;;5.10;99.90;;;;;;4919723;29;20560;-64
2022/12/06 16:13:44;;;;;;;3.60;3.30;;;5.10;99.90;;;;;;4919213;29;20670;-66
2022/12/06 16:16:10;;;;;;;4.00;3.60;;;5.10;99.90;;;;;;4919505;29;20181;-65
2022/12/06 16:18:36;;;;;;;4.07;3.67;;;5.10;99.90;;;;;;4919218;29;20197;-67
2022/12/06 16:21:02;;;;;;;3.23;2.90;;;5.10;99.90;;;;;;4919302;29;20425;-62
2022/12/06 16:26:15;;;;;;;2.63;2.42;;;5.10;99.90;;;;;;4919518;29;20183;-65
2022/12/06 16:28:41;;;;;;;3.25;2.95;;;5.10;99.90;;;;;;4919490;29;20234;-64
2022/12/06 16:31:10;;;;;;;4.13;3.30;;;5.10;99.90;;;;;;4919121;29;20177;-65
2022/12/06 16:33:35;;;;;;;3.92;3.55;;;5.10;99.90;;;;;;4918480;29;20452;-64
2022/12/06 16:36:10;;;;;;;4.13;3.73;;;5.10;99.90;;;;;;4913375;29;20179;-64
2022/12/06 16:38:36;;;;;;;3.20;2.80;;;5.10;99.90;;;;;;4902889;29;20182;-64
2022/12/06 16:41:08;;;;;;;3.30;2.97;;;5.10;99.90;;;;;;4917552;29;20184;-62
2022/12/06 16:43:33;;;;;;;3.88;3.28;;;5.20;99.90;;;;;;4918322;29;20191;-64
2022/12/06 16:46:15;;;;;;;4.47;3.73;;;5.10;99.90;;;;;;4918414;29;20177;-64
2022/12/06 16:48:41;;;;;;;3.95;3.65;;;5.10;99.90;;;;;;4919332;29;20177;-63
2022/12/06 16:51:07;;;;;;;4.67;4.27;;;5.10;99.90;;;;;;4917975;29;20215;-62
2022/12/06 16:53:32;;;;;;;5.87;3.97;;;5.10;99.90;;;;;;4918192;29;20205;-64
2022/12/06 16:55:58;;;;;;;4.97;4.03;;;5.10;99.90;;;;;;4918317;29;20179;-66
2022/12/06 16:58:23;;;;;;;5.97;4.60;;;5.10;99.90;;;;;;4918112;29;20179;-62
2022/12/06 17:00:49;;;;;;;7.70;4.10;;;5.00;99.90;;;;;;4918550;29;20533;-62
2022/12/06 17:03:14;;;;;;;3.40;3.10;;;5.10;99.90;;;;;;4918350;29;20236;-63
2022/12/06 17:05:41;;;;;;;8.03;4.00;;;5.10;99.90;;;;;;4918504;29;20215;-63
2022/12/06 17:08:07;;;;;;;3.33;2.92;;;5.10;99.90;;;;;;4918398;29;20183;-63
2022/12/06 17:10:32;;;;;;;3.77;3.50;;;5.10;99.90;;;;;;4918834;29;20185;-65
2022/12/06 17:12:58;;;;;;;4.13;3.67;;;5.10;99.90;;;;;;4918284;29;20194;-64
2022/12/06 17:15:24;;;;;;;5.90;4.30;;;5.10;99.90;;;;;;4918771;29;20201;-64
2022/12/06 17:17:49;;;;;;;5.93;4.20;;;5.10;99.90;;;;;;4918852;29;20649;-64
2022/12/06 17:20:16;;;;;;;4.60;4.20;;;5.10;99.90;;;;;;4918168;29;20238;-62
2022/12/06 17:22:42;;;;;;;5.10;4.28;;;5.10;99.90;;;;;;4918288;29;20177;-64
2022/12/06 17:25:10;;;;;;;4.90;3.40;;;5.10;99.90;;;;;;4918543;29;20203;-64
2022/12/06 17:27:37;;;;;;;4.15;3.75;;;5.10;99.90;;;;;;4918457;29;20419;-67
2022/12/06 17:30:04;;;;;;;5.45;3.70;;;5.10;99.90;;;;;;4918332;29;20186;-64
2022/12/06 17:32:30;;;;;;;4.10;3.70;;;5.10;99.90;;;;;;4916257;29;20207;-61
2022/12/06 17:34:56;;;;;;;3.73;3.30;;;5.10;99.90;;;;;;4915430;29;20279;-62
2022/12/06 17:37:21;;;;;;;4.33;3.93;;;5.10;99.90;;;;;;4899263;29;20179;-63
2022/12/06 17:39:47;;;;;;;6.87;4.80;;;5.10;99.90;;;;;;4908335;29;20203;-64
2022/12/06 17:44:57;;;;;;;3.47;3.28;;;5.10;99.90;;;;;;4908152;29;20455;-62
2022/12/06 17:47:23;;;;;;;4.60;3.90;;;5.10;99.90;;;;;;4917430;29;20638;-63
2022/12/06 17:49:50;;;;;;;4.72;3.65;;;5.10;99.90;;;;;;4916447;29;20473;-64
2022/12/06 17:52:16;;;;;;;4.25;3.85;;;5.10;99.90;;;;;;4916984;29;20284;-63
2022/12/06 17:54:42;;;;;;;4.18;3.38;;;5.10;99.90;;;;;;4917118;29;20212;-62
2022/12/06 17:57:14;;;;;;;4.00;3.60;;;5.10;99.90;;;;;;4916907;29;20649;-65
2022/12/06 17:59:40;;;;;;;4.10;2.85;;;5.20;99.90;;;;;;4917444;29;20495;-63
2022/12/06 18:02:12;;;;;;;4.90;3.90;;;5.20;99.90;;;;;;4917005;29;20237;-62
2022/12/06 18:04:37;;;;;;;4.05;3.60;;;5.10;99.90;;;;;;4916307;29;20201;-66
2022/12/06 18:07:03;;;;;;;4.50;4.10;;;5.10;99.90;;;;;;4917167;29;20198;-64
2022/12/06 18:09:29;;;;;;;4.70;3.87;;;5.10;99.90;;;;;;4913983;29;20588;-62
2022/12/06 18:11:54;;;;;;;4.43;3.90;;;5.10;99.90;;;;;;4900143;29;20180;-60
2022/12/06 18:14:20;;;;;;;3.63;3.23;;;5.10;99.90;;;;;;4906041;29;20248;-60
2022/12/06 18:16:49;;;;;;;4.20;3.63;;;5.10;99.90;;;;;;4917153;29;20932;-62
2022/12/06 18:19:17;;;;;;;3.95;3.58;;;5.10;99.90;;;;;;4917102;29;20618;-62
2022/12/06 18:21:43;;;;;;;4.55;4.07;;;5.10;99.90;;;;;;4917123;29;20170;-67
2022/12/06 18:24:11;;;;;;;3.65;3.35;;;5.10;99.90;;;;;;4916473;29;20551;-66
2022/12/06 18:26:37;;;;;;;4.75;3.83;;;5.10;99.90;;;;;;4916965;29;20556;-64
2022/12/06 18:29:04;;;;;;;8.00;3.60;;;5.10;99.90;;;;;;4916388;29;20262;-63
2022/12/06 18:31:32;;;;;;;4.90;4.10;;;5.10;99.90;;;;;;4916567;29;20294;-64
2022/12/06 18:33:59;;;;;;;5.20;3.83;;;5.10;99.90;;;;;;4916662;29;20214;-65